Time;durP1;ratioP1;P1;durP2;ratioP2;P2;SDS_P1;SDS_P2;PMS_P1;PMS_P2;Temp;Humidity;BMP_temperature;BMP_pressure;BME280_temperature;BME280_humidity;BME280_pressure;Samples;Min_cycle;Max_cycle;Signal;HPM_P1;HPM_P2
2022/07/01 00:00:36;;;;;;;2.90;2.80;;;18.00;90.20;;;;;;5021640;28;20205;-84
2022/07/01 00:03:03;;;;;;;2.85;2.75;;;18.10;90.10;;;;;;5014038;28;20244;-83
2022/07/01 00:05:30;;;;;;;3.00;2.90;;;18.10;90.90;;;;;;5025127;28;20221;-85
2022/07/01 00:07:57;;;;;;;3.30;3.10;;;18.20;89.00;;;;;;5020331;28;20186;-85
2022/07/01 00:10:23;;;;;;;3.67;3.28;;;18.30;89.20;;;;;;5019116;28;20672;-84
2022/07/01 00:12:49;;;;;;;2.88;2.78;;;18.20;89.60;;;;;;5023965;28;20217;-85
2022/07/01 00:15:15;;;;;;;3.23;3.13;;;18.20;89.90;;;;;;5029668;28;20220;-82
2022/07/01 00:17:43;;;;;;;3.10;2.90;;;18.10;90.00;;;;;;5036778;28;20247;-81
2022/07/01 00:20:09;;;;;;;3.00;2.80;;;18.10;90.20;;;;;;5021016;28;20196;-83
2022/07/01 00:22:35;;;;;;;2.77;2.67;;;17.90;90.80;;;;;;5019381;28;20226;-84
2022/07/01 00:25:02;;;;;;;2.90;2.80;;;17.90;91.60;;;;;;5003641;28;20327;-85
2022/07/01 00:27:28;;;;;;;2.90;2.80;;;17.90;91.20;;;;;;5015447;28;20181;-84
2022/07/01 00:29:53;;;;;;;3.20;2.90;;;18.00;91.30;;;;;;5013533;28;20253;-84
2022/07/01 00:32:19;;;;;;;3.10;2.90;;;18.10;90.40;;;;;;4997191;28;20202;-83
2022/07/01 00:34:45;;;;;;;2.97;2.80;;;18.00;91.00;;;;;;5016583;28;20204;-84
2022/07/01 00:37:11;;;;;;;2.97;2.88;;;18.00;91.30;;;;;;5020564;28;20192;-85
2022/07/01 00:39:36;;;;;;;3.00;2.80;;;17.90;91.30;;;;;;5019981;28;20202;-84
2022/07/01 00:42:04;;;;;;;2.90;2.80;;;17.90;91.70;;;;;;5015889;28;20235;-84
2022/07/01 00:44:31;;;;;;;3.37;3.17;;;18.00;91.70;;;;;;5020230;28;20212;-84
2022/07/01 00:46:59;;;;;;;2.90;2.80;;;17.90;91.50;;;;;;5016457;28;20556;-84
2022/07/01 00:49:25;;;;;;;2.85;2.75;;;17.90;92.10;;;;;;4994652;28;20231;-84
2022/07/01 00:51:52;;;;;;;3.40;3.10;;;18.00;91.20;;;;;;5014884;28;20185;-84
2022/07/01 00:54:19;;;;;;;2.90;2.80;;;18.00;91.20;;;;;;4998035;28;20296;-84
2022/07/01 00:56:46;;;;;;;3.10;3.00;;;18.10;90.10;;;;;;4996372;28;20195;-84
2022/07/01 00:59:12;;;;;;;2.83;2.72;;;18.10;90.70;;;;;;5017194;28;20571;-84
2022/07/01 01:01:38;;;;;;;3.00;2.80;;;18.10;91.10;;;;;;5019343;28;20190;-83
2022/07/01 01:04:06;;;;;;;2.77;2.67;;;17.80;91.80;;;;;;5000876;28;20222;-83
2022/07/01 01:06:33;;;;;;;4.03;3.13;;;17.90;92.20;;;;;;5013975;28;20219;-85
2022/07/01 01:09:00;;;;;;;2.90;2.70;;;17.90;91.10;;;;;;5013755;28;20221;-84
2022/07/01 01:11:26;;;;;;;2.75;2.65;;;17.90;91.00;;;;;;5002007;28;20197;-85
2022/07/01 01:13:52;;;;;;;3.00;2.90;;;17.90;91.30;;;;;;5014492;28;20218;-84
2022/07/01 01:16:22;;;;;;;3.00;2.90;;;18.00;91.70;;;;;;5006597;28;20270;-84
2022/07/01 01:18:48;;;;;;;3.00;2.80;;;18.30;91.20;;;;;;5016411;28;20197;-82
2022/07/01 01:21:15;;;;;;;3.00;2.80;;;18.40;89.20;;;;;;5033279;28;20197;-83
2022/07/01 01:23:41;;;;;;;2.88;2.67;;;18.60;89.20;;;;;;5023444;28;20265;-84
2022/07/01 01:26:18;;;;;;;2.75;2.65;;;18.70;87.80;;;;;;5024748;28;20253;-84
2022/07/01 01:28:44;;;;;;;3.00;2.90;;;18.80;89.90;;;;;;5013262;28;20181;-84
2022/07/01 01:31:10;;;;;;;2.90;2.80;;;18.80;90.20;;;;;;4998945;28;20205;-85
2022/07/01 01:33:37;;;;;;;3.13;3.03;;;18.90;89.20;;;;;;5017568;28;20287;-84
2022/07/01 01:36:04;;;;;;;3.15;3.05;;;19.00;89.10;;;;;;5009835;28;20197;-84
2022/07/01 01:38:29;;;;;;;2.88;2.65;;;19.20;88.00;;;;;;5024243;28;20200;-84
2022/07/01 01:40:55;;;;;;;3.20;3.10;;;19.10;85.90;;;;;;5014583;28;20190;-82
2022/07/01 01:43:21;;;;;;;2.83;2.72;;;18.80;86.60;;;;;;5000356;28;20213;-85
2022/07/01 01:45:47;;;;;;;3.28;2.97;;;18.70;89.20;;;;;;5019098;28;20221;-85
2022/07/01 01:48:12;;;;;;;3.38;3.17;;;18.70;87.60;;;;;;5023334;28;20193;-83
2022/07/01 01:50:38;;;;;;;3.35;3.15;;;18.70;90.10;;;;;;5022333;28;20189;-84
2022/07/01 01:53:04;;;;;;;3.08;2.88;;;18.80;89.00;;;;;;5021214;28;20210;-84
2022/07/01 01:55:30;;;;;;;3.10;2.90;;;18.70;88.60;;;;;;5033006;28;20209;-84
2022/07/01 01:57:55;;;;;;;3.03;2.85;;;18.70;89.50;;;;;;4999788;28;20231;-83
2022/07/01 02:00:21;;;;;;;3.08;2.85;;;18.70;89.00;;;;;;5014011;28;20193;-85
2022/07/01 02:02:46;;;;;;;2.97;2.72;;;18.90;89.50;;;;;;5020640;28;20218;-85
2022/07/01 02:05:13;;;;;;;2.88;2.75;;;19.00;89.00;;;;;;5018404;28;20750;-84
2022/07/01 02:07:39;;;;;;;2.58;2.47;;;19.00;87.40;;;;;;5021335;28;20234;-82
2022/07/01 02:10:06;;;;;;;2.90;2.67;;;19.00;87.60;;;;;;5016883;28;20391;-85
2022/07/01 02:12:32;;;;;;;3.00;2.90;;;18.90;87.00;;;;;;5014812;28;20206;-83
2022/07/01 02:14:58;;;;;;;3.22;3.03;;;18.80;88.40;;;;;;5014336;28;20262;-82
2022/07/01 02:17:25;;;;;;;3.17;3.08;;;18.80;88.50;;;;;;4998682;28;20237;-83
2022/07/01 02:19:51;;;;;;;3.20;2.90;;;18.60;89.40;;;;;;5013531;28;20198;-84
2022/07/01 02:22:17;;;;;;;3.05;2.85;;;18.60;90.30;;;;;;4995804;28;20198;-84
2022/07/01 02:24:43;;;;;;;3.45;3.13;;;18.60;90.10;;;;;;5019717;28;20526;-84
2022/07/01 02:27:09;;;;;;;2.95;2.75;;;18.60;89.80;;;;;;5015977;28;20189;-86
2022/07/01 02:29:35;;;;;;;3.53;2.72;;;18.50;90.10;;;;;;5014295;28;20293;-85
2022/07/01 02:32:01;;;;;;;4.03;2.90;;;18.50;90.50;;;;;;5011441;28;20248;-85
2022/07/01 02:34:26;;;;;;;3.42;3.13;;;18.50;90.30;;;;;;5014712;28;20765;-83
2022/07/01 02:36:55;;;;;;;2.95;2.75;;;18.50;90.10;;;;;;5012558;28;20186;-84
2022/07/01 02:39:21;;;;;;;3.15;3.00;;;18.70;89.80;;;;;;5014430;28;20218;-84
2022/07/01 02:44:31;;;;;;;2.85;2.75;;;18.60;89.50;;;;;;5015281;28;20218;-84
2022/07/01 02:46:57;;;;;;;2.80;2.70;;;18.40;90.30;;;;;;5015196;28;20248;-84
2022/07/01 02:49:23;;;;;;;3.05;2.85;;;18.40;90.70;;;;;;5020209;28;20273;-83
2022/07/01 02:51:49;;;;;;;2.95;2.85;;;18.50;91.00;;;;;;5023407;28;20186;-85
2022/07/01 02:54:14;;;;;;;3.10;2.90;;;18.70;89.70;;;;;;5027588;28;20213;-85
2022/07/01 02:56:40;;;;;;;3.10;3.00;;;18.60;88.70;;;;;;4999480;28;20193;-84
2022/07/01 02:59:06;;;;;;;3.03;2.85;;;18.40;91.00;;;;;;5016302;28;20193;-84
2022/07/01 03:01:31;;;;;;;3.20;3.00;;;18.30;91.20;;;;;;5020563;28;20197;-84
2022/07/01 03:03:57;;;;;;;3.92;3.05;;;18.20;91.80;;;;;;5008381;28;20225;-82
2022/07/01 03:06:23;;;;;;;2.83;2.63;;;17.90;93.30;;;;;;5035859;28;20207;-82
2022/07/01 03:08:48;;;;;;;3.00;2.80;;;17.90;93.50;;;;;;5028397;28;20181;-84
2022/07/01 03:11:14;;;;;;;3.00;2.80;;;18.00;92.30;;;;;;5000562;28;20224;-84
2022/07/01 03:13:40;;;;;;;2.83;2.63;;;18.10;92.00;;;;;;5018007;28;20211;-83
2022/07/01 03:16:06;;;;;;;2.83;2.63;;;18.20;91.80;;;;;;5018098;28;20188;-82
2022/07/01 03:18:32;;;;;;;3.17;2.70;;;18.10;91.30;;;;;;4992955;28;20202;-82
2022/07/01 03:20:57;;;;;;;2.70;2.60;;;18.10;92.50;;;;;;5016260;28;20187;-85
2022/07/01 03:23:23;;;;;;;2.80;2.70;;;18.00;92.30;;;;;;5015300;28;20251;-84
2022/07/01 03:25:49;;;;;;;3.28;2.95;;;18.00;92.00;;;;;;5005090;28;20288;-84
2022/07/01 03:28:15;;;;;;;2.80;2.70;;;18.00;93.00;;;;;;5023078;28;20650;-83
2022/07/01 03:30:40;;;;;;;3.47;3.22;;;17.90;93.00;;;;;;5020901;28;20228;-84
2022/07/01 03:33:06;;;;;;;3.63;3.33;;;17.80;93.80;;;;;;5018677;28;20213;-83
2022/07/01 03:35:45;;;;;;;3.20;2.90;;;17.70;94.30;;;;;;5016184;28;20204;-83
2022/07/01 03:38:11;;;;;;;3.47;3.17;;;17.70;94.10;;;;;;5015006;28;20199;-84
2022/07/01 03:40:37;;;;;;;3.40;2.90;;;17.70;94.20;;;;;;5017329;28;20204;-83
2022/07/01 03:43:04;;;;;;;2.90;2.70;;;17.60;94.10;;;;;;5020564;28;20349;-84
2022/07/01 03:45:31;;;;;;;3.03;2.83;;;17.50;95.00;;;;;;5016501;28;20202;-84
2022/07/01 03:47:57;;;;;;;2.60;2.50;;;17.50;94.80;;;;;;5019304;28;20555;-84
2022/07/01 03:50:25;;;;;;;3.93;2.60;;;17.30;96.30;;;;;;5019810;28;20731;-84
2022/07/01 03:55:36;;;;;;;2.90;2.80;;;17.40;95.00;;;;;;5027115;28;20269;-83
2022/07/01 03:58:01;;;;;;;2.80;2.60;;;17.30;94.80;;;;;;5023408;28;20201;-84
2022/07/01 04:00:27;;;;;;;2.70;2.60;;;17.30;94.70;;;;;;5015338;28;20257;-84
2022/07/01 04:02:53;;;;;;;2.77;2.60;;;17.30;95.60;;;;;;5019231;28;20217;-82
2022/07/01 04:05:19;;;;;;;3.80;2.87;;;17.10;95.80;;;;;;5016897;28;20235;-84
2022/07/01 04:07:45;;;;;;;2.60;2.50;;;17.10;94.80;;;;;;5019464;28;20191;-84
2022/07/01 04:10:12;;;;;;;3.30;3.00;;;17.10;95.10;;;;;;5016320;28;20186;-84
2022/07/01 04:12:38;;;;;;;4.73;2.43;;;17.10;95.20;;;;;;5017049;28;20229;-83
2022/07/01 04:15:04;;;;;;;2.50;2.40;;;16.90;95.70;;;;;;5016864;28;20268;-84
2022/07/01 04:17:30;;;;;;;2.50;2.10;;;16.90;96.20;;;;;;5019649;28;20235;-84
2022/07/01 04:19:56;;;;;;;2.60;2.23;;;17.10;96.20;;;;;;5021709;28;20187;-84
2022/07/01 04:22:35;;;;;;;2.30;2.10;;;17.10;96.80;;;;;;5021420;28;20272;-85
2022/07/01 04:25:06;;;;;;;3.13;2.20;;;17.00;96.30;;;;;;4989874;28;20397;-86
2022/07/01 04:27:31;;;;;;;2.20;2.10;;;16.90;97.10;;;;;;5001055;28;20197;-85
2022/07/01 04:29:57;;;;;;;2.40;2.17;;;16.80;96.80;;;;;;5005018;28;20198;-85
2022/07/01 04:32:23;;;;;;;2.27;2.17;;;16.80;96.90;;;;;;5016313;28;20203;-85
2022/07/01 04:34:50;;;;;;;2.57;2.40;;;16.80;96.90;;;;;;5025390;28;20198;-85
2022/07/01 04:37:15;;;;;;;2.40;2.30;;;16.80;97.00;;;;;;5023688;28;20807;-85
2022/07/01 04:39:41;;;;;;;3.63;2.23;;;16.80;97.50;;;;;;5012957;28;20201;-85
2022/07/01 04:42:07;;;;;;;2.70;2.50;;;16.80;97.90;;;;;;4992285;28;20225;-85
2022/07/01 04:44:37;;;;;;;2.70;2.50;;;16.90;98.00;;;;;;5024623;28;20213;-86
2022/07/01 04:47:04;;;;;;;2.57;2.47;;;16.80;97.50;;;;;;5015748;28;20200;-86
2022/07/01 04:49:31;;;;;;;3.30;3.00;;;16.60;98.60;;;;;;5026573;28;20183;-85
2022/07/01 04:51:58;;;;;;;3.10;2.90;;;16.70;99.20;;;;;;5015066;28;20191;-85
2022/07/01 04:54:25;;;;;;;3.00;2.80;;;16.60;99.20;;;;;;4996593;28;20241;-85
2022/07/01 04:56:52;;;;;;;3.23;3.03;;;16.60;99.30;;;;;;5020502;28;20207;-84
2022/07/01 04:59:19;;;;;;;3.10;2.90;;;16.50;99.50;;;;;;5013715;28;20189;-86
2022/07/01 05:01:48;;;;;;;3.53;2.93;;;16.50;99.90;;;;;;5028050;28;20193;-85
2022/07/01 05:04:14;;;;;;;2.97;2.77;;;16.50;98.60;;;;;;5023484;28;20214;-85
2022/07/01 05:06:40;;;;;;;3.13;2.93;;;16.50;99.30;;;;;;5022665;28;20257;-85
2022/07/01 05:09:06;;;;;;;4.00;2.93;;;16.60;98.80;;;;;;5013559;28;20205;-84
2022/07/01 05:11:32;;;;;;;3.30;3.10;;;16.70;99.00;;;;;;5025843;28;20187;-84
2022/07/01 05:13:58;;;;;;;5.60;2.93;;;16.80;98.80;;;;;;4997102;28;20696;-84
2022/07/01 05:16:24;;;;;;;3.33;3.03;;;16.80;97.60;;;;;;4997386;28;20297;-84
2022/07/01 05:24:18;;;;;;;3.30;3.10;;;16.70;98.00;;;;;;5022339;28;20236;-83
2022/07/01 05:26:43;;;;;;;3.60;3.40;;;16.60;98.70;;;;;;5021754;28;20295;-84
2022/07/01 05:29:09;;;;;;;3.60;3.30;;;16.70;98.20;;;;;;5019679;28;20200;-83
2022/07/01 05:31:35;;;;;;;3.77;3.47;;;16.80;98.10;;;;;;5012080;28;20213;-84
2022/07/01 05:34:01;;;;;;;3.60;3.20;;;16.90;97.30;;;;;;5025089;28;20231;-85
2022/07/01 05:36:27;;;;;;;3.93;3.63;;;16.90;97.40;;;;;;5007385;28;20252;-83
2022/07/01 05:38:53;;;;;;;4.07;3.77;;;16.90;97.80;;;;;;5021710;28;20239;-83
2022/07/01 05:41:18;;;;;;;4.40;4.10;;;16.70;98.90;;;;;;5005019;28;20205;-83
2022/07/01 05:43:44;;;;;;;3.90;3.63;;;16.80;98.60;;;;;;5020267;28;20306;-84
2022/07/01 05:46:10;;;;;;;3.63;3.40;;;16.90;98.40;;;;;;5007861;28;20284;-84
2022/07/01 05:48:36;;;;;;;3.70;3.40;;;17.00;97.70;;;;;;5003405;28;20661;-84
2022/07/01 05:51:02;;;;;;;3.80;3.40;;;17.10;97.50;;;;;;5000458;28;20195;-84
2022/07/01 05:53:28;;;;;;;3.90;3.70;;;17.20;96.70;;;;;;5021391;28;20229;-82
2022/07/01 05:55:54;;;;;;;3.80;3.47;;;17.20;96.70;;;;;;5012621;28;20185;-82
2022/07/01 05:58:19;;;;;;;4.50;3.97;;;17.00;97.60;;;;;;5023927;28;20204;-84
2022/07/01 06:00:45;;;;;;;4.30;4.00;;;17.10;97.90;;;;;;5021038;28;20203;-84
2022/07/01 06:03:12;;;;;;;4.70;4.00;;;17.10;98.10;;;;;;5024723;28;20288;-84
2022/07/01 06:05:39;;;;;;;4.70;4.30;;;17.00;98.50;;;;;;5021106;28;20227;-83
2022/07/01 06:08:08;;;;;;;4.87;4.30;;;17.10;99.00;;;;;;5023087;28;20209;-84
2022/07/01 06:10:35;;;;;;;4.83;4.33;;;17.10;99.90;;;;;;5026965;28;20190;-83
2022/07/01 06:13:01;;;;;;;5.53;4.47;;;16.90;99.90;;;;;;5016602;28;20374;-84
2022/07/01 06:15:28;;;;;;;5.07;4.60;;;16.90;99.80;;;;;;5018918;28;20200;-84
2022/07/01 06:17:53;;;;;;;5.47;4.73;;;17.00;99.90;;;;;;5027580;28;20197;-84
2022/07/01 06:20:20;;;;;;;5.00;4.60;;;17.00;99.90;;;;;;5027277;28;20195;-83
2022/07/01 06:22:46;;;;;;;4.27;4.00;;;16.90;98.70;;;;;;5010012;28;20768;-83
2022/07/01 06:25:12;;;;;;;4.50;4.10;;;17.20;99.20;;;;;;5027380;28;20190;-84
2022/07/01 06:27:42;;;;;;;4.60;4.23;;;17.10;99.50;;;;;;5009640;28;20195;-84
2022/07/01 06:30:09;;;;;;;4.50;4.10;;;17.20;98.70;;;;;;5024076;28;20185;-85
2022/07/01 06:32:34;;;;;;;4.10;3.70;;;17.10;99.90;;;;;;5019274;28;20556;-84
2022/07/01 06:35:00;;;;;;;5.70;4.20;;;17.00;99.10;;;;;;5010425;28;20186;-85
2022/07/01 06:37:26;;;;;;;4.13;3.83;;;17.00;98.00;;;;;;5010511;28;20185;-84
2022/07/01 06:39:52;;;;;;;4.43;4.03;;;17.00;98.90;;;;;;5026606;28;20358;-85
2022/07/01 06:42:18;;;;;;;3.93;3.63;;;16.90;98.70;;;;;;5025576;28;20202;-84
2022/07/01 06:44:43;;;;;;;3.90;3.70;;;16.90;99.70;;;;;;5025954;28;20205;-84
2022/07/01 06:47:09;;;;;;;4.07;3.77;;;16.90;98.60;;;;;;5014066;28;20203;-84
2022/07/01 06:49:35;;;;;;;4.40;4.00;;;16.90;99.70;;;;;;5027991;28;20194;-84
2022/07/01 06:52:01;;;;;;;4.27;3.97;;;16.90;99.90;;;;;;5026908;28;20190;-84
2022/07/01 06:54:28;;;;;;;4.27;3.97;;;16.80;99.90;;;;;;5015918;28;20229;-84
2022/07/01 06:56:54;;;;;;;4.97;4.00;;;16.90;99.90;;;;;;5007301;28;20285;-84
2022/07/01 06:59:20;;;;;;;4.20;3.87;;;16.90;99.90;;;;;;4999888;28;20192;-84
2022/07/01 07:01:45;;;;;;;6.23;3.93;;;16.90;99.90;;;;;;5019467;28;20197;-84
2022/07/01 07:04:11;;;;;;;5.10;3.90;;;16.70;99.90;;;;;;5010069;28;20208;-84
2022/07/01 07:06:37;;;;;;;3.97;3.77;;;16.80;99.90;;;;;;5027445;28;20214;-85
2022/07/01 07:09:03;;;;;;;4.13;3.83;;;16.90;99.90;;;;;;5006696;28;20225;-85
2022/07/01 07:11:28;;;;;;;4.23;3.93;;;16.90;99.90;;;;;;5025891;28;20208;-84
2022/07/01 07:13:54;;;;;;;3.97;3.73;;;16.80;99.90;;;;;;5027872;28;20305;-83
2022/07/01 07:16:20;;;;;;;4.17;3.87;;;16.70;99.90;;;;;;5027692;28;20235;-85
2022/07/01 07:18:50;;;;;;;4.20;3.77;;;16.70;99.90;;;;;;5018274;28;20220;-84
2022/07/01 07:21:16;;;;;;;4.27;3.97;;;16.80;99.90;;;;;;5006955;28;20196;-84
2022/07/01 07:23:42;;;;;;;3.90;3.60;;;16.90;99.90;;;;;;5017055;28;20585;-85
2022/07/01 07:26:09;;;;;;;3.97;3.77;;;16.90;99.90;;;;;;5017458;28;20226;-85
2022/07/01 07:28:35;;;;;;;3.87;3.67;;;16.90;99.90;;;;;;5025721;28;20194;-85
2022/07/01 07:31:00;;;;;;;4.70;3.87;;;16.70;99.90;;;;;;5030554;28;20180;-84
2022/07/01 07:33:26;;;;;;;4.20;3.80;;;16.70;99.90;;;;;;5027462;28;20212;-84
2022/07/01 07:35:52;;;;;;;3.93;3.63;;;16.60;99.90;;;;;;5015262;28;20611;-86
2022/07/01 07:38:19;;;;;;;4.00;3.60;;;16.50;99.90;;;;;;5015647;28;20191;-84
2022/07/01 07:40:44;;;;;;;4.23;3.93;;;16.70;99.90;;;;;;5011263;28;20190;-84
2022/07/01 07:43:10;;;;;;;4.10;3.80;;;16.90;99.90;;;;;;5027015;28;20340;-84
2022/07/01 07:45:36;;;;;;;3.90;3.53;;;16.90;99.00;;;;;;4987245;28;20281;-85
2022/07/01 07:48:02;;;;;;;4.77;3.70;;;17.10;99.20;;;;;;5026428;28;20220;-85
2022/07/01 07:50:28;;;;;;;3.97;3.67;;;17.00;99.90;;;;;;5026326;28;20184;-84
2022/07/01 07:52:53;;;;;;;4.10;3.90;;;16.90;99.90;;;;;;5023158;28;20283;-83
2022/07/01 07:55:19;;;;;;;3.80;3.50;;;16.80;99.90;;;;;;5026819;28;20182;-84
2022/07/01 07:57:45;;;;;;;4.80;3.83;;;16.90;99.90;;;;;;5027228;28;20738;-85
2022/07/01 08:00:13;;;;;;;4.13;3.73;;;16.80;99.90;;;;;;5027036;28;20709;-85
2022/07/01 08:02:40;;;;;;;4.10;3.80;;;16.70;99.90;;;;;;5026651;28;20208;-85
2022/07/01 08:05:07;;;;;;;4.33;4.00;;;16.50;99.90;;;;;;5020431;28;20274;-84
2022/07/01 08:07:38;;;;;;;4.00;3.80;;;16.40;99.90;;;;;;5018044;28;20190;-87
2022/07/01 08:10:07;;;;;;;4.20;3.63;;;16.40;99.90;;;;;;5003799;28;20193;-84
2022/07/01 08:12:33;;;;;;;3.80;3.50;;;16.60;99.90;;;;;;5009362;28;20205;-85
2022/07/01 08:14:59;;;;;;;4.30;4.00;;;16.50;99.90;;;;;;5025744;28;20197;-85
2022/07/01 08:17:26;;;;;;;5.77;3.90;;;16.60;99.90;;;;;;5027375;28;20504;-87
2022/07/01 08:19:52;;;;;;;4.30;4.00;;;16.70;99.90;;;;;;5025471;28;20192;-85
2022/07/01 08:22:18;;;;;;;4.10;3.80;;;16.70;99.90;;;;;;5023134;28;20190;-84
2022/07/01 08:24:43;;;;;;;4.00;3.80;;;16.60;99.90;;;;;;5016087;28;20200;-85
2022/07/01 08:27:09;;;;;;;4.10;3.67;;;16.70;99.90;;;;;;5020546;28;20273;-85
2022/07/01 08:29:36;;;;;;;4.00;3.70;;;16.60;99.90;;;;;;5032904;28;20176;-84
2022/07/01 08:32:02;;;;;;;3.77;3.57;;;16.70;99.90;;;;;;5018537;28;20186;-84
2022/07/01 08:34:27;;;;;;;4.47;4.10;;;16.90;99.90;;;;;;5021146;28;20274;-86
2022/07/01 08:36:53;;;;;;;5.50;3.90;;;17.00;99.90;;;;;;5016192;28;20193;-84
2022/07/01 08:39:20;;;;;;;4.73;4.00;;;17.00;99.90;;;;;;5025314;28;20253;-85
2022/07/01 08:41:47;;;;;;;3.87;3.67;;;16.80;99.90;;;;;;5021009;28;20190;-84
2022/07/01 08:44:13;;;;;;;4.13;3.77;;;16.90;99.90;;;;;;5028699;28;20257;-83
2022/07/01 08:46:38;;;;;;;4.33;3.93;;;16.90;99.90;;;;;;5006450;28;20209;-84
2022/07/01 08:49:04;;;;;;;4.20;3.90;;;17.10;99.90;;;;;;5025537;28;20216;-84
2022/07/01 08:51:30;;;;;;;3.73;3.53;;;17.20;99.90;;;;;;5015132;28;20297;-85
2022/07/01 08:53:55;;;;;;;3.80;3.50;;;17.10;99.90;;;;;;5018601;28;20217;-83
2022/07/01 08:59:06;;;;;;;3.87;3.57;;;17.10;99.90;;;;;;5020605;28;20731;-85
2022/07/01 09:01:33;;;;;;;4.50;4.10;;;17.00;97.50;;;;;;5018010;28;20700;-85
2022/07/01 09:04:19;;;;;;;3.37;3.17;;;17.20;99.80;;;;;;5023396;28;20237;-85
2022/07/01 09:06:46;;;;;;;4.33;4.00;;;17.40;96.50;;;;;;5017298;28;20210;-85
2022/07/01 09:09:20;;;;;;;3.87;3.60;;;17.40;99.10;;;;;;5010014;28;20194;-84
2022/07/01 09:11:53;;;;;;;3.70;3.33;;;17.50;97.20;;;;;;5016194;28;20205;-84
2022/07/01 09:14:22;;;;;;;3.73;3.53;;;17.70;93.60;;;;;;5023277;28;20738;-84
2022/07/01 09:16:52;;;;;;;3.87;3.67;;;17.80;94.80;;;;;;5020686;28;20255;-84
2022/07/01 09:19:20;;;;;;;4.30;3.87;;;17.90;91.50;;;;;;5013655;28;20626;-84
2022/07/01 09:21:51;;;;;;;5.05;4.05;;;18.00;92.10;;;;;;5003611;28;20251;-84
2022/07/01 09:24:38;;;;;;;3.95;3.75;;;18.00;87.90;;;;;;5025992;28;20247;-85
2022/07/01 09:27:13;;;;;;;4.78;3.95;;;18.20;87.70;;;;;;5016588;28;20239;-83
2022/07/01 09:29:43;;;;;;;4.13;3.83;;;18.10;87.50;;;;;;5006672;28;20176;-85
2022/07/01 09:32:12;;;;;;;4.88;4.00;;;18.10;90.40;;;;;;5010518;28;20216;-85
2022/07/01 09:34:43;;;;;;;3.85;3.45;;;18.40;91.00;;;;;;5009765;28;20193;-84
2022/07/01 09:37:15;;;;;;;3.95;3.67;;;18.60;91.30;;;;;;5015900;28;20186;-85
2022/07/01 09:39:45;;;;;;;3.50;3.30;;;18.60;85.50;;;;;;5015025;28;20212;-84
2022/07/01 09:42:12;;;;;;;3.95;3.60;;;18.50;87.60;;;;;;5015057;28;20723;-85
2022/07/01 09:44:57;;;;;;;3.78;3.58;;;18.80;87.60;;;;;;5003921;28;20194;-84
2022/07/01 09:47:24;;;;;;;3.90;3.60;;;18.80;85.50;;;;;;5013221;28;20188;-84
2022/07/01 09:50:17;;;;;;;4.90;3.70;;;18.80;82.60;;;;;;5012970;28;20212;-84
2022/07/01 09:52:43;;;;;;;3.60;3.40;;;19.10;84.00;;;;;;4994685;28;20248;-83
2022/07/01 09:55:09;;;;;;;3.78;3.50;;;19.40;81.70;;;;;;5015493;28;20186;-84
2022/07/01 09:57:35;;;;;;;3.70;3.50;;;19.60;80.30;;;;;;4995338;28;20200;-83
2022/07/01 10:00:00;;;;;;;4.45;3.20;;;19.90;80.70;;;;;;5012022;28;20189;-84
2022/07/01 10:02:30;;;;;;;3.85;3.65;;;20.10;78.70;;;;;;5019075;28;20190;-85
2022/07/01 10:05:07;;;;;;;3.70;3.40;;;20.10;79.60;;;;;;5022373;28;20202;-85
2022/07/01 10:07:39;;;;;;;3.72;3.42;;;20.30;78.40;;;;;;5018051;28;20184;-84
2022/07/01 10:10:08;;;;;;;3.72;3.53;;;20.30;74.90;;;;;;5011479;28;20217;-84
2022/07/01 10:12:42;;;;;;;3.63;3.42;;;20.50;77.50;;;;;;5005612;28;20209;-85
2022/07/01 10:15:11;;;;;;;3.83;3.55;;;20.80;77.20;;;;;;5005246;28;20192;-85
2022/07/01 10:17:43;;;;;;;3.83;3.63;;;20.70;76.40;;;;;;5020924;28;20217;-84
2022/07/01 10:20:17;;;;;;;3.75;3.50;;;20.40;75.40;;;;;;5019472;28;20182;-85
2022/07/01 10:22:44;;;;;;;3.42;3.22;;;20.40;77.20;;;;;;5016027;28;20681;-85
2022/07/01 10:25:49;;;;;;;3.63;3.42;;;20.40;77.60;;;;;;5018375;28;20206;-84
2022/07/01 10:28:21;;;;;;;3.53;3.22;;;20.30;74.80;;;;;;4960898;29;20242;-86
2022/07/01 10:30:55;;;;;;;3.67;3.47;;;19.80;74.80;;;;;;5009259;28;20461;-85
2022/07/01 10:33:41;;;;;;;3.65;3.35;;;19.70;79.80;;;;;;5022815;28;20200;-85
2022/07/01 10:36:38;;;;;;;4.10;3.80;;;19.90;77.40;;;;;;5021028;28;20195;-85
2022/07/01 10:39:11;;;;;;;3.17;2.97;;;20.20;76.20;;;;;;5009949;28;20681;-84
2022/07/01 10:41:54;;;;;;;3.30;3.10;;;20.20;71.50;;;;;;5019929;28;20185;-84
2022/07/01 10:44:21;;;;;;;3.17;2.97;;;20.60;70.30;;;;;;5013108;28;20355;-85
2022/07/01 10:47:02;;;;;;;3.38;3.08;;;21.30;65.10;;;;;;5010566;28;20716;-84
2022/07/01 10:49:37;;;;;;;3.45;3.17;;;22.00;66.10;;;;;;4998619;28;20548;-85
2022/07/01 10:52:12;;;;;;;4.20;3.53;;;22.10;66.20;;;;;;5011114;28;20193;-83
2022/07/01 10:54:40;;;;;;;3.15;2.95;;;22.40;61.50;;;;;;5012252;28;20190;-85
2022/07/01 10:57:23;;;;;;;3.72;3.42;;;22.80;64.20;;;;;;5018347;28;20216;-85
2022/07/01 10:59:53;;;;;;;3.53;3.33;;;22.90;58.60;;;;;;5012267;28;20232;-84
2022/07/01 11:02:23;;;;;;;4.25;4.03;;;22.80;59.50;;;;;;5022450;28;20526;-85
2022/07/01 11:05:10;;;;;;;4.03;3.80;;;23.00;58.10;;;;;;5018401;28;20684;-85
2022/07/01 11:07:46;;;;;;;3.60;3.40;;;23.40;55.10;;;;;;5016437;28;20185;-85
2022/07/01 11:10:15;;;;;;;4.20;3.92;;;23.70;57.00;;;;;;5023491;28;20260;-85
2022/07/01 11:12:43;;;;;;;3.90;3.70;;;23.40;57.50;;;;;;5016575;28;20235;-85
2022/07/01 11:15:10;;;;;;;4.25;3.95;;;23.90;54.70;;;;;;5015713;28;20189;-85
2022/07/01 11:17:48;;;;;;;4.22;3.72;;;23.80;52.80;;;;;;5038478;28;20196;-85
2022/07/01 11:20:13;;;;;;;4.15;3.85;;;23.50;54.50;;;;;;5004433;28;20193;-85
2022/07/01 11:22:40;;;;;;;4.30;4.00;;;23.00;55.90;;;;;;5008352;28;20224;-85
2022/07/01 11:25:08;;;;;;;4.00;3.80;;;22.80;57.10;;;;;;5018361;28;20206;-84
2022/07/01 11:27:34;;;;;;;4.20;3.83;;;22.90;54.90;;;;;;5018106;28;20200;-85
2022/07/01 11:30:11;;;;;;;4.28;3.95;;;22.80;54.80;;;;;;5015604;28;20189;-85
2022/07/01 11:32:46;;;;;;;4.05;3.85;;;22.70;54.60;;;;;;5017486;28;20755;-85
2022/07/01 11:41:00;;;;;;;4.57;3.75;;;22.10;61.10;;;;;;5009038;28;20193;-84
2022/07/01 11:43:33;;;;;;;3.72;3.53;;;22.10;61.20;;;;;;5018672;28;20213;-84
2022/07/01 11:46:01;;;;;;;3.55;3.35;;;22.10;60.80;;;;;;5013031;28;20253;-86
2022/07/01 11:48:39;;;;;;;3.55;3.35;;;21.70;62.00;;;;;;5011570;28;20186;-85
2022/07/01 11:51:08;;;;;;;3.90;3.35;;;21.30;61.10;;;;;;5009449;28;20208;-84
2022/07/01 11:53:34;;;;;;;3.70;3.50;;;21.60;62.60;;;;;;5011315;28;20206;-87
2022/07/01 11:56:00;;;;;;;4.05;3.70;;;22.00;60.10;;;;;;5019745;28;20265;-85
2022/07/01 11:58:59;;;;;;;3.85;3.53;;;22.40;60.80;;;;;;5021041;28;20248;-85
2022/07/01 12:01:30;;;;;;;3.90;3.60;;;21.80;59.90;;;;;;5016102;28;20228;-84
2022/07/01 12:03:59;;;;;;;4.60;4.18;;;22.00;61.00;;;;;;5014628;28;20202;-83
2022/07/01 12:06:25;;;;;;;4.22;3.95;;;22.20;60.50;;;;;;5009686;28;20210;-84
2022/07/01 12:08:53;;;;;;;3.40;3.20;;;22.50;59.30;;;;;;5014419;28;20182;-85
2022/07/01 12:11:21;;;;;;;3.63;3.38;;;22.50;59.20;;;;;;5008780;28;20196;-83
2022/07/01 12:13:47;;;;;;;3.60;3.35;;;22.10;59.10;;;;;;5024687;28;20205;-84
2022/07/01 12:16:13;;;;;;;4.00;3.60;;;22.60;56.10;;;;;;5002517;28;20200;-84
2022/07/01 12:18:50;;;;;;;3.85;3.65;;;22.80;57.10;;;;;;4997343;28;20185;-84
2022/07/01 12:21:15;;;;;;;3.58;3.38;;;22.50;55.40;;;;;;5022294;28;20662;-84
2022/07/01 12:23:41;;;;;;;4.20;4.00;;;22.50;59.50;;;;;;5017542;28;20249;-86
2022/07/01 12:26:07;;;;;;;3.72;3.47;;;22.60;58.10;;;;;;5020649;28;20205;-84
2022/07/01 12:28:38;;;;;;;3.55;3.35;;;22.40;57.30;;;;;;5015197;28;20190;-84
2022/07/01 12:31:09;;;;;;;4.30;4.00;;;22.70;57.60;;;;;;5022095;28;20590;-84
2022/07/01 12:33:39;;;;;;;4.03;3.72;;;23.40;55.60;;;;;;5001724;28;20206;-84
2022/07/01 12:36:07;;;;;;;4.25;3.95;;;23.70;54.40;;;;;;5010382;28;20199;-84
2022/07/01 12:38:33;;;;;;;4.47;4.28;;;23.80;53.10;;;;;;5014355;28;20209;-86
2022/07/01 12:40:59;;;;;;;4.82;4.53;;;24.50;51.70;;;;;;5017044;28;20239;-86
2022/07/01 12:43:29;;;;;;;4.90;4.60;;;24.60;50.00;;;;;;5001888;28;20221;-84
2022/07/01 12:45:59;;;;;;;4.88;4.57;;;25.20;47.30;;;;;;5016083;28;20205;-86
2022/07/01 12:48:25;;;;;;;4.65;4.35;;;25.40;48.50;;;;;;5019418;28;20185;-84
2022/07/01 12:50:58;;;;;;;4.20;3.85;;;25.20;47.30;;;;;;5022339;28;20235;-84
2022/07/01 12:53:27;;;;;;;4.20;3.90;;;25.20;45.40;;;;;;5011257;28;20198;-85
2022/07/01 12:55:57;;;;;;;5.20;4.80;;;25.30;48.80;;;;;;4993987;28;20197;-85
2022/07/01 12:58:27;;;;;;;4.18;3.90;;;25.90;46.10;;;;;;5011532;28;20209;-85
2022/07/01 13:00:55;;;;;;;3.78;3.47;;;26.40;43.70;;;;;;5013107;28;20213;-86
2022/07/01 13:03:24;;;;;;;4.10;3.70;;;26.50;40.10;;;;;;5012938;28;20202;-86
2022/07/01 13:05:51;;;;;;;3.85;3.65;;;26.40;41.60;;;;;;5011337;28;20216;-85
2022/07/01 13:08:17;;;;;;;3.80;3.60;;;26.20;43.10;;;;;;5000047;28;20255;-85
2022/07/01 13:10:43;;;;;;;4.10;3.80;;;25.50;45.20;;;;;;5016766;28;20467;-84